Flight Track Log - Related Links

Times and Time Zones

All times are in EDT time to prevent confusion due to time zone crossing. See the UAL395 flight status page for this flight to view local times or setup timezone preferences in your user account.

Time Position Orientation Groundspeed Altitude Reporting Facility
EDT Latitude Longitude Course Direction KTS MPH feet Rate Location/Type
Wed 11:30:11 AM 42.3500 -71.0167 240° Southwest 150 173 700  Level KA90
Wed 11:32:31 AM 42.3208 -70.8761 106° East 245 282 6,200 2,619 Climbing Boston Center
Wed 11:33:00 AM 42.3525 -70.7271 172° South  Level FlightAware
Wed 11:33:28 AM 42.3278 -70.7775 85° East 261 300 9,300  Level Boston Center
Wed 11:34:00 AM 42.2820 -70.7437 228° Southwest  Level FlightAware
Wed 11:34:29 AM 42.2375 -70.7322 160° South 256 295 11,700  Level Boston Center
Wed 11:35:00 AM 42.2297 -70.8251 240° Southwest  Level FlightAware
Wed 11:35:29 AM 42.1806 -70.8236 230° Southwest 215 247 14,500  Level Boston Center
Wed 11:36:30 AM 42.1611 -70.9361 257° West 248 285 16,000 744 Climbing Boston Center
Wed 11:37:30 AM 42.1442 -71.0792 261° West 312 359 16,000  Level Boston Center
Wed 11:38:30 AM 42.1289 -71.2000 260° West 360 414 16,000  Level Boston Center
Wed 11:39:31 AM 42.1117 -71.3486 261° West 373 429 16,000  Level Boston Center
Wed 11:40:31 AM 42.0981 -71.4636 261° West 373 429 16,000  Level Boston Center
Wed 11:41:29 AM 42.0783 -71.6039 259° West 373 429 16,000  Level Boston Center
Wed 11:42:29 AM 42.0628 -71.7522 262° West 373 429 16,000  Level Boston Center
Wed 11:43:30 AM 42.0489 -71.8781 262° West 373 429 16,000  Level Boston Center
Wed 11:44:31 AM 42.0267 -72.0292 259° West 373 429 16,000  Level Boston Center
Wed 11:45:31 AM 42.0083 -72.1606 259° West 373 429 16,000  Level Boston Center
Wed 11:46:29 AM 41.9919 -72.3006 261° West 373 429 16,000  Level Boston Center
Wed 11:47:30 AM 41.9753 -72.4344 261° West 373 429 16,000  Level Boston Center
Wed 11:48:31 AM 41.9564 -72.5714 260° West 373 429 16,000  Level Boston Center
Wed 11:49:29 AM 41.9394 -72.6942 260° West 373 429 16,000  Level Boston Center
Wed 11:50:30 AM 41.9078 -72.8389 254° West 373 429 16,000  Level Boston Center
Wed 11:51:30 AM 41.8739 -72.9697 251° West 373 429 16,000  Level Boston Center
Wed 11:52:30 AM 41.8483 -73.0867 254° West 373 429 16,000  Level Boston Center
Wed 11:53:31 AM 41.8142 -73.2311 252° West 373 429 16,000  Level Boston Center
Wed 11:54:29 AM 41.7797 -73.3644 251° West 373 429 16,000 -508 Level Boston Center
Wed 11:55:29 AM 41.7453 -73.4947 251° West 378 435 15,000 -1,091 Descending Boston Center
Wed 11:56:30 AM 41.7169 -73.6192 253° West 378 435 13,800 -1,261 Descending Boston Center
Wed 11:57:28 AM 41.6886 -73.7328 252° West 351 404 12,500 -1,210 Descending Boston Center
Wed 11:58:29 AM 41.6622 -73.8489 253° West 339 390 11,400 -1,033 Descending Boston Center
Wed 11:59:30 AM 41.6358 -73.9539 251° West 316 364 10,400 -689 Descending Boston Center
Wed 12:00:31 PM 41.6114 -74.0561 252° West 299 344 10,000 -202 Descending Boston Center
Wed 12:01:29 PM 41.5892 -74.1556 253° West 294 338 10,000  Level Boston Center
Wed 12:02:29 PM 41.5647 -74.2547 252° West 286 329 10,000 -595 Level Boston Center
Wed 12:03:30 PM 41.5297 -74.3450 243° Southwest 286 329 8,800 -1,190 Descending Boston Center
Wed 12:04:30 PM 41.4628 -74.3736 198° South 266 306 7,600 -651 Descending Boston Center
Wed 12:06:25 PM 41.3000 -74.4333 195° South 280 322 6,900 -377 Descending New TRACON
Wed 12:07:25 PM 41.2333 -74.4500 191° South 278 320 6,500 -450 Descending New TRACON
Wed 12:08:25 PM 41.1500 -74.4500 180° South 275 316 6,000 -300 Descending New TRACON
Wed 12:09:25 PM 41.0833 -74.4333 169° South 275 316 5,900 -300 Descending New TRACON
Wed 12:10:25 PM 41.0167 -74.4333 180° South 236 272 5,400 -450 Descending New TRACON
Wed 12:11:25 PM 40.9500 -74.4167 169° South 235 270 5,000 -200 Descending New TRACON
Wed 12:12:25 PM 40.9500 -74.3333 90° East 235 270 5,000  Level New TRACON
Wed 12:13:31 PM 40.9333 -74.2333 102° East 233 268 5,000 -150 Level New TRACON
Wed 12:14:25 PM 40.9167 -74.1667 108° East 216 249 4,700 -579 Descending New TRACON
Wed 12:15:25 PM 40.9000 -74.1000 108° East 197 227 3,900 -950 Descending New TRACON
Wed 12:16:25 PM 40.8500 -74.0833 166° South 181 208 2,800 -850 Descending New TRACON
Wed 12:17:25 PM 40.8000 -74.1000 194° South 182 209 2,200 -750 Descending New TRACON
Wed 12:18:25 PM 40.7500 -74.1167 194° South 178 205 1,300 -850 Descending New TRACON
Wed 12:19:25 PM 40.7167 -74.1500 217° Southwest 134 154 500 -800 Descending New TRACON

Login

Don't have an account? Register now (free) for customized features, flight alerts, and more!